createdAt,value
2023-03-05T00:01:06.969Z,2.49
2023-03-05T00:03:33.600Z,2.47
2023-03-05T00:06:00.260Z,2.47
2023-03-05T00:08:28.166Z,2.47
2023-03-05T00:10:59.374Z,2.44
2023-03-05T00:13:26.300Z,2.44
2023-03-05T00:15:52.967Z,2.26
2023-03-05T00:18:20.128Z,2.43
2023-03-05T00:20:47.565Z,2.43
2023-03-05T00:23:14.660Z,2.43
2023-03-05T00:25:41.347Z,2.47
2023-03-05T00:28:08.519Z,2.47
2023-03-05T00:30:35.670Z,2.47
2023-03-05T00:33:02.306Z,2.44
2023-03-05T00:35:29.820Z,2.24
2023-03-05T00:37:57.550Z,2.44
2023-03-05T00:40:24.118Z,2.44
2023-03-05T00:42:50.913Z,2.34
2023-03-05T00:45:17.443Z,2.27
2023-03-05T00:47:43.963Z,2.44
2023-03-05T00:50:11.056Z,2.44
2023-03-05T00:52:37.479Z,2.42
2023-03-05T00:55:04.217Z,2.40
2023-03-05T00:57:30.724Z,2.37
2023-03-05T00:59:57.265Z,2.19
2023-03-05T01:02:23.724Z,2.38
2023-03-05T01:04:50.289Z,2.38
2023-03-05T01:07:16.833Z,2.35
2023-03-05T01:09:43.310Z,2.37
2023-03-05T01:12:09.953Z,2.39
2023-03-05T01:14:36.734Z,2.25
2023-03-05T01:17:03.234Z,2.39
2023-03-05T01:19:30.110Z,2.30
2023-03-05T01:21:56.683Z,2.39
2023-03-05T01:24:23.254Z,2.40
2023-03-05T01:26:49.708Z,2.40
2023-03-05T01:29:16.351Z,2.38
2023-03-05T01:31:42.984Z,2.37
2023-03-05T01:34:09.993Z,2.32
2023-03-05T01:36:36.482Z,2.27
2023-03-05T01:39:03.548Z,2.30
2023-03-05T01:41:30.249Z,2.32
2023-03-05T01:43:56.718Z,2.25
2023-03-05T01:46:29.666Z,2.31
2023-03-05T01:49:01.475Z,2.35
2023-03-05T01:51:30.466Z,2.35
2023-03-05T01:53:58.138Z,2.32
2023-03-05T01:56:25.351Z,2.29
2023-03-05T01:58:52.220Z,2.32
2023-03-05T02:01:19.335Z,2.33
2023-03-05T02:03:46.688Z,2.22
2023-03-05T02:06:13.548Z,2.14
2023-03-05T02:08:40.235Z,2.27
2023-03-05T02:11:07.497Z,2.21
2023-03-05T02:13:38.233Z,2.19
2023-03-05T02:16:05.137Z,2.26
2023-03-05T02:18:31.748Z,2.09
2023-03-05T02:20:58.247Z,2.27
2023-03-05T02:23:33.682Z,2.25
2023-03-05T02:26:00.542Z,2.18
2023-03-05T02:28:37.459Z,2.28
2023-03-05T02:31:15.280Z,2.29
2023-03-05T02:33:41.919Z,2.32
2023-03-05T02:36:08.869Z,2.27
2023-03-05T02:38:35.452Z,2.30
2023-03-05T02:41:01.940Z,2.27
2023-03-05T02:43:28.486Z,2.30
2023-03-05T02:45:55.152Z,2.27
2023-03-05T02:48:21.766Z,2.14
2023-03-05T02:50:48.669Z,2.27
2023-03-05T02:53:15.295Z,2.26
2023-03-05T02:55:41.799Z,2.21
2023-03-05T02:58:08.357Z,2.26
2023-03-05T03:00:34.922Z,2.26
2023-03-05T03:03:01.536Z,2.22
2023-03-05T03:05:28.082Z,2.27
2023-03-05T03:07:54.643Z,2.09
2023-03-05T03:10:21.292Z,2.26
2023-03-05T03:12:47.768Z,2.21
2023-03-05T03:15:16.300Z,2.27
2023-03-05T03:17:43.327Z,2.08
2023-03-05T03:20:14.096Z,2.14
2023-03-05T03:22:41.209Z,2.19
2023-03-05T03:25:08.494Z,2.22
2023-03-05T03:27:35.129Z,2.04
2023-03-05T03:30:04.810Z,2.20
2023-03-05T03:32:32.532Z,2.13
2023-03-05T03:34:59.474Z,2.16
2023-03-05T03:37:26.618Z,2.13
2023-03-05T03:39:53.206Z,2.15
2023-03-05T03:42:20.645Z,2.09
2023-03-05T03:44:47.720Z,2.18
2023-03-05T03:47:14.367Z,2.13
2023-03-05T03:49:40.968Z,2.17
2023-03-05T03:52:07.863Z,2.17
2023-03-05T03:54:34.669Z,2.12
2023-03-05T03:57:01.225Z,2.14
2023-03-05T03:59:27.797Z,2.15
2023-03-05T04:01:54.240Z,2.02
2023-03-05T04:04:20.800Z,1.97
2023-03-05T04:06:47.498Z,2.11
2023-03-05T04:09:14.072Z,2.12
2023-03-05T04:11:40.515Z,2.11
2023-03-05T04:14:07.033Z,1.94
2023-03-05T04:16:33.522Z,2.13
2023-03-05T04:19:00.007Z,2.06
2023-03-05T04:21:26.580Z,2.12
2023-03-05T04:23:53.082Z,2.12
2023-03-05T04:26:19.674Z,2.09
2023-03-05T04:28:47.040Z,2.08
2023-03-05T04:31:13.664Z,2.14
2023-03-05T04:33:41.236Z,2.15
2023-03-05T04:36:08.052Z,1.97
2023-03-05T04:38:34.566Z,2.08
2023-03-05T04:41:01.193Z,2.06
2023-03-05T04:43:27.710Z,2.13
2023-03-05T04:45:55.127Z,2.01
2023-03-05T04:48:21.658Z,1.97
2023-03-05T04:50:48.206Z,2.13
2023-03-05T04:53:14.717Z,2.00
2023-03-05T04:55:41.296Z,2.14
2023-03-05T04:58:07.836Z,2.07
2023-03-05T05:00:34.439Z,2.11
2023-03-05T05:03:01.052Z,2.13
2023-03-05T05:05:28.703Z,2.12
2023-03-05T05:07:56.439Z,2.10
2023-03-05T05:10:26.781Z,2.11
2023-03-05T05:12:53.450Z,2.09
2023-03-05T05:15:20.180Z,2.07
2023-03-05T05:17:47.180Z,2.07
2023-03-05T05:20:14.752Z,2.08
2023-03-05T05:22:41.435Z,2.05
2023-03-05T05:25:08.458Z,2.08
2023-03-05T05:27:35.005Z,2.07
2023-03-05T05:30:01.794Z,2.05
2023-03-05T05:32:28.438Z,1.97
2023-03-05T05:34:56.201Z,2.00
2023-03-05T05:37:23.112Z,2.02
2023-03-05T05:39:50.918Z,1.98
2023-03-05T05:42:18.784Z,2.00
2023-03-05T05:44:45.512Z,2.00
2023-03-05T05:47:12.084Z,1.75
2023-03-05T05:49:38.639Z,2.00
2023-03-05T05:52:05.819Z,1.98
2023-03-05T05:54:32.303Z,1.81
2023-03-05T05:56:58.838Z,1.94
2023-03-05T05:59:26.212Z,2.00
2023-03-05T06:01:52.698Z,1.85
2023-03-05T06:04:19.276Z,1.95
2023-03-05T06:06:45.942Z,1.82
2023-03-05T06:09:12.585Z,1.99
2023-03-05T06:11:39.193Z,1.98
2023-03-05T06:14:07.527Z,1.97
2023-03-05T06:16:34.205Z,1.97
2023-03-05T06:19:04.431Z,1.98
2023-03-05T06:21:32.116Z,1.99
2023-03-05T06:23:58.738Z,1.97
2023-03-05T06:26:25.511Z,2.02
2023-03-05T06:28:52.132Z,1.91
2023-03-05T06:31:25.856Z,1.94
2023-03-05T06:33:54.853Z,1.93
2023-03-05T06:36:22.560Z,2.00
2023-03-05T06:38:51.062Z,2.02
2023-03-05T06:41:21.145Z,1.99
2023-03-05T06:43:48.338Z,1.94
2023-03-05T06:46:17.700Z,1.91
2023-03-05T06:48:44.814Z,1.80
2023-03-05T06:51:19.952Z,1.88
2023-03-05T06:53:49.307Z,1.87
2023-03-05T06:56:18.227Z,1.87
2023-03-05T06:58:46.243Z,1.88
2023-03-05T07:01:13.707Z,1.84
2023-03-05T07:03:40.622Z,1.77
2023-03-05T07:06:13.048Z,1.94
2023-03-05T07:08:39.807Z,1.97
2023-03-05T07:11:11.114Z,2.03
2023-03-05T07:13:37.669Z,2.06
2023-03-05T07:16:09.163Z,2.10
2023-03-05T07:18:35.893Z,2.16
2023-03-05T07:21:08.274Z,2.20
2023-03-05T07:23:36.025Z,2.25
2023-03-05T07:26:03.900Z,2.22
2023-03-05T07:28:30.728Z,2.32
2023-03-05T07:31:03.548Z,2.32
2023-03-05T07:33:30.402Z,2.26
2023-03-05T07:35:57.212Z,2.18
2023-03-05T07:38:23.896Z,2.38
2023-03-05T07:40:50.776Z,2.41
2023-03-05T07:43:17.742Z,2.20
2023-03-05T07:45:45.045Z,2.31
2023-03-05T07:48:17.294Z,2.50
2023-03-05T07:50:44.248Z,2.39
2023-03-05T07:53:10.924Z,2.52
2023-03-05T07:55:47.168Z,2.65
2023-03-05T07:58:14.509Z,2.71
2023-03-05T08:00:41.458Z,2.72
2023-03-05T08:03:08.133Z,2.72
2023-03-05T08:05:34.749Z,2.76
2023-03-05T08:08:01.220Z,2.66
2023-03-05T08:10:27.878Z,2.79
2023-03-05T08:12:54.465Z,2.65
2023-03-05T08:15:21.047Z,2.74
2023-03-05T08:17:47.633Z,2.76
2023-03-05T08:20:14.314Z,2.74
2023-03-05T08:22:40.872Z,2.58
2023-03-05T08:25:08.115Z,2.72
2023-03-05T08:27:38.582Z,2.71
2023-03-05T08:30:05.740Z,2.69
2023-03-05T08:32:32.336Z,2.69
2023-03-05T08:34:59.012Z,2.68
2023-03-05T08:37:25.761Z,2.68
2023-03-05T08:39:52.488Z,2.70
2023-03-05T08:42:19.146Z,2.61
2023-03-05T08:44:45.790Z,2.80
2023-03-05T08:47:12.306Z,2.88
2023-03-05T08:49:38.884Z,2.96
2023-03-05T08:52:05.613Z,3.04
2023-03-05T08:54:33.465Z,2.97
2023-03-05T08:57:00.123Z,3.17
2023-03-05T08:59:26.732Z,3.08
2023-03-05T09:01:53.245Z,3.19
2023-03-05T09:04:19.783Z,3.22
2023-03-05T09:06:46.317Z,3.25
2023-03-05T09:09:14.080Z,3.11
2023-03-05T09:11:40.637Z,3.11
2023-03-05T09:14:08.337Z,3.24
2023-03-05T09:16:36.234Z,3.36
2023-03-05T09:19:02.896Z,3.49
2023-03-05T09:21:29.427Z,3.51
2023-03-05T09:23:59.600Z,3.37
2023-03-05T09:26:26.558Z,3.63
2023-03-05T09:28:53.154Z,3.69
2023-03-05T09:31:19.774Z,3.77
2023-03-05T09:33:48.453Z,3.85
2023-03-05T09:36:23.388Z,3.87
2023-03-05T09:38:50.477Z,3.95
2023-03-05T09:41:18.197Z,3.99
2023-03-05T09:44:11.081Z,4.04
2023-03-05T09:47:14.700Z,4.09
2023-03-05T09:50:00.455Z,4.12
2023-03-05T09:52:55.191Z,4.15
2023-03-05T09:55:34.379Z,4.11
2023-03-05T09:58:15.496Z,4.19
2023-03-05T10:00:47.836Z,4.12
2023-03-05T10:03:32.398Z,4.20
2023-03-05T10:06:27.637Z,4.35
2023-03-05T10:09:03.421Z,4.53
2023-03-05T10:11:57.803Z,4.63
2023-03-05T10:14:29.921Z,4.61
2023-03-05T10:17:29.258Z,4.69
2023-03-05T10:20:15.950Z,4.79
2023-03-05T10:23:05.855Z,4.83
2023-03-05T10:25:38.303Z,4.92
2023-03-05T10:28:17.845Z,4.86
2023-03-05T10:30:44.336Z,4.99
2023-03-05T10:33:35.500Z,4.97
2023-03-05T10:36:11.384Z,4.79
2023-03-05T10:39:13.449Z,5.00
2023-03-05T10:41:42.731Z,5.16
2023-03-05T10:44:37.157Z,5.38
2023-03-05T10:47:13.010Z,5.24
2023-03-05T10:49:46.349Z,5.22
2023-03-05T10:52:22.875Z,5.18
2023-03-05T10:54:49.659Z,5.03
2023-03-05T10:57:32.856Z,4.96
2023-03-05T10:59:59.363Z,5.30
2023-03-05T11:02:25.963Z,5.36
2023-03-05T11:04:54.780Z,5.24
2023-03-05T11:07:22.719Z,5.42
2023-03-05T11:10:04.414Z,5.53
2023-03-05T11:12:36.020Z,5.59
2023-03-05T11:15:11.363Z,5.65
2023-03-05T11:17:43.383Z,5.57
2023-03-05T11:20:28.822Z,5.48
2023-03-05T11:23:23.600Z,5.45
2023-03-05T11:26:01.224Z,5.41
2023-03-05T11:28:33.736Z,5.31
2023-03-05T11:31:15.800Z,5.28
2023-03-05T11:34:03.328Z,5.15
2023-03-05T11:36:40.954Z,5.07
2023-03-05T11:39:10.633Z,5.16
2023-03-05T11:41:42.067Z,5.28
2023-03-05T11:44:17.853Z,5.26
2023-03-05T11:46:50.982Z,5.34
2023-03-05T11:49:24.511Z,5.27
2023-03-05T11:52:02.092Z,5.47
2023-03-05T11:54:52.809Z,5.35
2023-03-05T11:57:21.738Z,5.30
2023-03-05T11:59:49.148Z,5.02
2023-03-05T12:02:26.848Z,5.08
2023-03-05T12:04:53.423Z,5.13
2023-03-05T12:07:25.083Z,5.27
2023-03-05T12:09:53.495Z,5.43
2023-03-05T12:12:44.651Z,5.47
2023-03-05T12:15:35.188Z,5.42
2023-03-05T12:18:12.379Z,5.40
2023-03-05T12:20:57.791Z,5.42
2023-03-05T12:23:27.952Z,5.18
2023-03-05T12:25:57.710Z,5.10
2023-03-05T12:28:36.991Z,4.96
2023-03-05T12:31:09.302Z,4.82
2023-03-05T12:33:37.194Z,4.64
2023-03-05T12:36:24.472Z,4.56
2023-03-05T12:38:55.276Z,4.61
2023-03-05T12:41:26.941Z,4.68
2023-03-05T12:44:06.550Z,4.68
2023-03-05T12:46:35.689Z,4.53
2023-03-05T12:49:20.509Z,4.50
2023-03-05T12:51:48.333Z,4.54
2023-03-05T12:54:32.082Z,4.62
2023-03-05T12:57:01.219Z,4.69
2023-03-05T12:59:40.915Z,4.80
2023-03-05T13:02:21.225Z,4.83
2023-03-05T13:04:48.408Z,4.70
2023-03-05T13:07:17.408Z,4.76
2023-03-05T13:09:56.075Z,4.87
2023-03-05T13:12:24.188Z,4.87
2023-03-05T13:15:08.881Z,4.87
2023-03-05T13:17:44.317Z,4.84
2023-03-05T13:20:28.660Z,4.84
2023-03-05T13:23:21.406Z,4.84
2023-03-05T13:26:18.654Z,4.86
2023-03-05T13:29:06.678Z,4.95
2023-03-05T13:31:35.376Z,4.94
2023-03-05T13:34:20.230Z,4.83
2023-03-05T13:36:50.237Z,4.76
2023-03-05T13:39:21.963Z,4.70
2023-03-05T13:42:02.980Z,4.48
2023-03-05T13:44:30.109Z,4.44
2023-03-05T13:47:07.787Z,4.45
2023-03-05T13:49:34.533Z,4.43
2023-03-05T13:52:01.057Z,4.50
2023-03-05T13:54:28.472Z,4.60
2023-03-05T13:56:56.496Z,4.63
2023-03-05T13:59:25.298Z,4.72
2023-03-05T14:01:52.388Z,4.83
2023-03-05T14:04:22.855Z,4.78
2023-03-05T14:06:59.565Z,5.00
2023-03-05T14:09:31.190Z,5.06
2023-03-05T14:12:21.505Z,5.10
2023-03-05T14:14:48.564Z,5.14
2023-03-05T14:17:30.472Z,5.14
2023-03-05T14:20:20.006Z,5.10
2023-03-05T14:22:50.367Z,5.08
2023-03-05T14:25:38.645Z,5.10
2023-03-05T14:28:17.589Z,5.03
2023-03-05T14:30:49.258Z,4.90
2023-03-05T14:33:25.952Z,4.87
2023-03-05T14:35:53.187Z,4.87
2023-03-05T14:38:23.635Z,4.76
2023-03-05T14:40:50.673Z,4.75
2023-03-05T14:43:17.229Z,4.77
2023-03-05T14:45:44.468Z,4.80
2023-03-05T14:48:13.375Z,4.72
2023-03-05T14:50:52.813Z,4.79
2023-03-05T14:53:35.332Z,4.82
2023-03-05T14:56:02.252Z,4.72
2023-03-05T14:58:32.442Z,4.80
2023-03-05T15:00:59.344Z,4.92
2023-03-05T15:03:27.868Z,4.93
2023-03-05T15:05:57.007Z,4.98
2023-03-05T15:08:26.593Z,5.00
2023-03-05T15:10:53.627Z,5.06
2023-03-05T15:13:20.894Z,5.07
2023-03-05T15:15:50.539Z,4.88
2023-03-05T15:18:19.810Z,5.04
2023-03-05T15:20:51.960Z,5.04
2023-03-05T15:23:19.390Z,4.86
2023-03-05T15:25:45.991Z,4.83
2023-03-05T15:28:12.486Z,4.98
2023-03-05T15:30:42.037Z,4.97
2023-03-05T15:33:10.732Z,4.79
2023-03-05T15:35:39.605Z,4.96
2023-03-05T15:38:06.229Z,4.79
2023-03-05T15:40:33.061Z,4.90
2023-03-05T15:43:00.819Z,4.88
2023-03-05T15:45:27.772Z,4.74
2023-03-05T15:47:54.616Z,4.72
2023-03-05T15:50:21.748Z,4.86
2023-03-05T15:52:48.688Z,4.87
2023-03-05T15:55:15.121Z,4.67
2023-03-05T15:57:46.705Z,4.82
2023-03-05T16:00:15.593Z,4.78
2023-03-05T16:02:42.018Z,4.73
2023-03-05T16:05:09.303Z,4.64
2023-03-05T16:07:37.620Z,4.61
2023-03-05T16:10:05.262Z,4.54
2023-03-05T16:12:40.511Z,4.57
2023-03-05T16:15:09.331Z,4.54
2023-03-05T16:17:35.951Z,4.51
2023-03-05T16:20:03.375Z,4.45
2023-03-05T16:22:30.667Z,4.40
2023-03-05T16:24:58.304Z,4.49
2023-03-05T16:27:24.975Z,4.43
2023-03-05T16:29:51.428Z,4.30
2023-03-05T16:32:18.055Z,4.37
2023-03-05T16:34:45.037Z,4.33
2023-03-05T16:37:19.388Z,4.30
2023-03-05T16:39:46.197Z,4.29
2023-03-05T16:42:15.636Z,4.23
2023-03-05T16:44:43.515Z,4.20
2023-03-05T16:47:12.346Z,4.15
2023-03-05T16:49:39.588Z,4.09
2023-03-05T16:52:18.251Z,4.01
2023-03-05T16:54:46.497Z,3.81
2023-03-05T16:57:13.102Z,3.69
2023-03-05T16:59:39.936Z,3.76
2023-03-05T17:02:06.553Z,3.69
2023-03-05T17:04:33.378Z,3.65
2023-03-05T17:06:59.941Z,3.76
2023-03-05T17:09:26.676Z,3.73
2023-03-05T17:11:54.313Z,3.66
2023-03-05T17:14:21.001Z,3.67
2023-03-05T17:16:47.908Z,3.65
2023-03-05T17:19:14.910Z,3.58
2023-03-05T17:21:42.560Z,3.45
2023-03-05T17:24:10.286Z,3.57
2023-03-05T17:26:37.126Z,3.63
2023-03-05T17:29:04.576Z,3.60
2023-03-05T17:31:31.419Z,3.49
2023-03-05T17:33:58.238Z,3.54
2023-03-05T17:36:25.294Z,3.60
2023-03-05T17:38:53.680Z,3.59
2023-03-05T17:41:20.532Z,3.57
2023-03-05T17:43:47.108Z,3.54
2023-03-05T17:46:14.429Z,3.47
2023-03-05T17:48:41.616Z,3.51
2023-03-05T17:51:10.467Z,3.35
2023-03-05T17:53:38.870Z,3.48
2023-03-05T17:56:10.531Z,3.37
2023-03-05T17:58:37.317Z,3.45
2023-03-05T18:01:04.645Z,3.40
2023-03-05T18:03:31.417Z,3.32
2023-03-05T18:05:57.993Z,3.40
2023-03-05T18:08:24.595Z,3.27
2023-03-05T18:10:51.191Z,3.40
2023-03-05T18:13:17.951Z,3.39
2023-03-05T18:15:47.610Z,3.41
2023-03-05T18:18:18.416Z,3.39
2023-03-05T18:20:47.455Z,3.37
2023-03-05T18:23:13.946Z,3.17
2023-03-05T18:25:40.596Z,3.33
2023-03-05T18:28:11.829Z,3.30
2023-03-05T18:30:40.550Z,3.29
2023-03-05T18:33:07.580Z,3.27
2023-03-05T18:35:34.628Z,3.21
2023-03-05T18:38:01.446Z,3.21
2023-03-05T18:40:30.567Z,2.95
2023-03-05T18:43:00.028Z,3.11
2023-03-05T18:45:27.042Z,3.12
2023-03-05T18:47:54.371Z,3.02
2023-03-05T18:50:22.460Z,2.92
2023-03-05T18:52:49.124Z,2.88
2023-03-05T18:55:18.595Z,2.91
2023-03-05T18:57:45.099Z,2.90
2023-03-05T19:00:17.134Z,2.85
2023-03-05T19:02:43.745Z,2.80
2023-03-05T19:05:10.722Z,2.63
2023-03-05T19:07:38.096Z,2.75
2023-03-05T19:10:09.921Z,2.72
2023-03-05T19:12:45.278Z,2.64
2023-03-05T19:15:13.344Z,2.61
2023-03-05T19:17:39.968Z,2.53
2023-03-05T19:20:07.819Z,2.32
2023-03-05T19:22:34.512Z,2.34
2023-03-05T19:25:01.705Z,2.53
2023-03-05T19:27:28.741Z,2.52
2023-03-05T19:29:55.305Z,2.45
2023-03-05T19:32:22.023Z,2.40
2023-03-05T19:34:48.639Z,2.57
2023-03-05T19:37:15.697Z,2.42
2023-03-05T19:39:42.444Z,2.57
2023-03-05T19:42:08.933Z,2.54
2023-03-05T19:44:35.505Z,2.50
2023-03-05T19:47:02.364Z,2.36
2023-03-05T19:49:29.005Z,2.49
2023-03-05T19:51:55.478Z,2.44
2023-03-05T19:54:22.651Z,2.41
2023-03-05T19:56:49.954Z,2.46
2023-03-05T19:59:18.230Z,2.46
2023-03-05T20:01:45.520Z,2.47
2023-03-05T20:04:17.928Z,2.49
2023-03-05T20:06:44.564Z,2.48
2023-03-05T20:09:11.496Z,2.52
2023-03-05T20:11:39.276Z,2.49
2023-03-05T20:14:06.229Z,2.39
2023-03-05T20:16:37.587Z,2.49
2023-03-05T20:19:06.097Z,2.38
2023-03-05T20:21:38.771Z,2.45
2023-03-05T20:24:09.765Z,2.42
2023-03-05T20:26:38.287Z,2.37
2023-03-05T20:29:05.414Z,2.42
2023-03-05T20:31:36.927Z,2.25
2023-03-05T20:34:08.812Z,2.36
2023-03-05T20:36:35.341Z,2.34
2023-03-05T20:39:03.302Z,2.33
2023-03-05T20:41:30.043Z,2.29
2023-03-05T20:43:56.865Z,2.24
2023-03-05T20:46:27.491Z,2.22
2023-03-05T20:48:57.547Z,2.20
2023-03-05T20:51:35.828Z,2.17
2023-03-05T20:54:13.036Z,2.16
2023-03-05T20:56:39.875Z,2.10
2023-03-05T20:59:08.698Z,2.08
2023-03-05T21:01:37.491Z,2.06
2023-03-05T21:04:04.754Z,2.09
2023-03-05T21:06:32.309Z,2.03
2023-03-05T21:08:59.888Z,2.05
2023-03-05T21:11:27.345Z,2.02
2023-03-05T21:13:53.846Z,2.02
2023-03-05T21:16:23.303Z,1.88
2023-03-05T21:18:51.070Z,1.91
2023-03-05T21:21:17.917Z,1.94
2023-03-05T21:23:44.411Z,1.73
2023-03-05T21:26:12.057Z,1.92
2023-03-05T21:28:40.296Z,1.84
2023-03-05T21:31:09.230Z,1.89
2023-03-05T21:33:36.212Z,1.88
2023-03-05T21:36:02.731Z,1.87
2023-03-05T21:38:30.817Z,1.76
2023-03-05T21:40:58.572Z,1.83
2023-03-05T21:43:25.947Z,1.85
2023-03-05T21:45:54.123Z,1.77
2023-03-05T21:48:21.841Z,1.89
2023-03-05T21:50:48.960Z,1.90
2023-03-05T21:53:17.249Z,1.84
2023-03-05T21:55:59.023Z,1.94
2023-03-05T21:58:25.627Z,1.96
2023-03-05T22:00:52.130Z,1.85
2023-03-05T22:03:18.602Z,1.86
2023-03-05T22:05:45.296Z,1.91
2023-03-05T22:08:11.738Z,1.90
2023-03-05T22:10:40.164Z,1.96
2023-03-05T22:13:10.396Z,2.00
2023-03-05T22:15:48.213Z,2.02
2023-03-05T22:18:26.096Z,2.02
2023-03-05T22:20:53.221Z,2.04
2023-03-05T22:23:22.333Z,2.03
2023-03-05T22:26:04.441Z,2.00
2023-03-05T22:28:32.814Z,1.97
2023-03-05T22:30:59.936Z,1.81
2023-03-05T22:33:27.480Z,1.83
2023-03-05T22:35:54.119Z,1.88
2023-03-05T22:38:21.337Z,1.89
2023-03-05T22:40:49.440Z,1.69
2023-03-05T22:43:16.603Z,1.89
2023-03-05T22:45:43.318Z,1.80
2023-03-05T22:48:10.716Z,1.57
2023-03-05T22:50:38.536Z,1.84
2023-03-05T22:53:05.114Z,1.82
2023-03-05T22:55:31.567Z,1.79
2023-03-05T22:57:58.218Z,1.61
2023-03-05T23:00:26.685Z,1.80
2023-03-05T23:02:53.405Z,1.81
2023-03-05T23:05:20.170Z,1.72
2023-03-05T23:07:46.769Z,1.65
2023-03-05T23:10:23.468Z,1.78
2023-03-05T23:12:52.713Z,1.73
2023-03-05T23:15:22.691Z,1.74
2023-03-05T23:17:49.730Z,1.58
2023-03-05T23:20:17.771Z,1.68
2023-03-05T23:22:45.064Z,1.65
2023-03-05T23:25:12.662Z,1.63
2023-03-05T23:27:39.247Z,1.62
2023-03-05T23:30:20.084Z,1.56
2023-03-05T23:32:57.735Z,1.56
2023-03-05T23:35:36.535Z,1.58
2023-03-05T23:38:06.534Z,1.48
2023-03-05T23:40:38.834Z,1.53
2023-03-05T23:43:05.569Z,1.55
2023-03-05T23:45:32.299Z,1.54
2023-03-05T23:47:59.106Z,1.50
2023-03-05T23:50:36.719Z,1.47
2023-03-05T23:53:03.756Z,1.49
2023-03-05T23:55:33.019Z,1.45
2023-03-05T23:58:00.133Z,1.47
